sensor_id;sensor_type;location;lat;lon;timestamp;P1;durP1;ratioP1;P2;durP2;ratioP2
38529;SDS011;24301;54.332;48.386;2022-09-13T00:03:31;7.78;;;5.05;;
38529;SDS011;24301;54.332;48.386;2022-09-13T00:05:57;7.07;;;4.87;;
38529;SDS011;24301;54.332;48.386;2022-09-13T00:08:32;6.37;;;4.97;;
38529;SDS011;24301;54.332;48.386;2022-09-13T00:10:57;5.30;;;4.70;;
38529;SDS011;24301;54.332;48.386;2022-09-13T00:13:23;6.07;;;4.43;;
38529;SDS011;24301;54.332;48.386;2022-09-13T00:15:49;6.47;;;4.93;;
38529;SDS011;24301;54.332;48.386;2022-09-13T00:18:16;5.13;;;4.43;;
38529;SDS011;24301;54.332;48.386;2022-09-13T00:20:43;6.57;;;5.57;;
38529;SDS011;24301;54.332;48.386;2022-09-13T00:23:09;6.60;;;4.77;;
38529;SDS011;24301;54.332;48.386;2022-09-13T00:25:36;7.80;;;5.10;;
38529;SDS011;24301;54.332;48.386;2022-09-13T00:28:03;6.77;;;4.70;;
38529;SDS011;24301;54.332;48.386;2022-09-13T00:30:29;5.23;;;4.33;;
38529;SDS011;24301;54.332;48.386;2022-09-13T00:32:55;6.13;;;4.83;;
38529;SDS011;24301;54.332;48.386;2022-09-13T00:42:37;8.77;;;5.90;;
38529;SDS011;24301;54.332;48.386;2022-09-13T00:52:55;7.67;;;5.60;;
38529;SDS011;24301;54.332;48.386;2022-09-13T00:55:29;8.30;;;6.10;;
38529;SDS011;24301;54.332;48.386;2022-09-13T00:58:18;6.97;;;5.57;;
38529;SDS011;24301;54.332;48.386;2022-09-13T01:00:49;7.77;;;5.20;;
38529;SDS011;24301;54.332;48.386;2022-09-13T01:03:17;6.77;;;5.37;;
38529;SDS011;24301;54.332;48.386;2022-09-13T01:05:47;6.90;;;5.47;;
38529;SDS011;24301;54.332;48.386;2022-09-13T01:08:18;6.27;;;4.93;;
38529;SDS011;24301;54.332;48.386;2022-09-13T01:10:47;6.53;;;5.30;;
38529;SDS011;24301;54.332;48.386;2022-09-13T01:13:20;7.20;;;5.53;;
38529;SDS011;24301;54.332;48.386;2022-09-13T01:15:47;8.00;;;4.90;;
38529;SDS011;24301;54.332;48.386;2022-09-13T01:18:14;6.43;;;4.80;;
38529;SDS011;24301;54.332;48.386;2022-09-13T01:23:49;7.30;;;5.55;;
38529;SDS011;24301;54.332;48.386;2022-09-13T01:33:15;7.47;;;5.83;;
38529;SDS011;24301;54.332;48.386;2022-09-13T01:38:43;9.10;;;6.03;;
38529;SDS011;24301;54.332;48.386;2022-09-13T01:41:26;7.77;;;5.27;;
38529;SDS011;24301;54.332;48.386;2022-09-13T01:44:11;7.80;;;5.60;;
38529;SDS011;24301;54.332;48.386;2022-09-13T02:01:15;6.55;;;5.25;;
38529;SDS011;24301;54.332;48.386;2022-09-13T02:03:53;7.60;;;5.57;;
38529;SDS011;24301;54.332;48.386;2022-09-13T02:06:59;6.38;;;5.13;;
38529;SDS011;24301;54.332;48.386;2022-09-13T02:09:25;6.13;;;5.43;;
38529;SDS011;24301;54.332;48.386;2022-09-13T02:11:58;7.27;;;5.70;;
38529;SDS011;24301;54.332;48.386;2022-09-13T02:14:37;7.43;;;5.50;;
38529;SDS011;24301;54.332;48.386;2022-09-13T02:17:15;7.93;;;5.07;;
38529;SDS011;24301;54.332;48.386;2022-09-13T02:22:17;6.60;;;5.73;;
38529;SDS011;24301;54.332;48.386;2022-09-13T02:24:48;7.20;;;4.80;;
38529;SDS011;24301;54.332;48.386;2022-09-13T02:27:19;6.63;;;4.70;;
38529;SDS011;24301;54.332;48.386;2022-09-13T02:29:51;5.33;;;4.43;;
38529;SDS011;24301;54.332;48.386;2022-09-13T02:33:04;6.90;;;5.10;;
38529;SDS011;24301;54.332;48.386;2022-09-13T02:37:48;6.40;;;4.43;;
38529;SDS011;24301;54.332;48.386;2022-09-13T02:40:23;5.80;;;5.10;;
38529;SDS011;24301;54.332;48.386;2022-09-13T02:51:54;6.72;;;4.70;;
38529;SDS011;24301;54.332;48.386;2022-09-13T02:57:17;6.03;;;4.53;;
38529;SDS011;24301;54.332;48.386;2022-09-13T02:59:51;8.43;;;4.80;;
38529;SDS011;24301;54.332;48.386;2022-09-13T03:02:18;7.23;;;5.23;;
38529;SDS011;24301;54.332;48.386;2022-09-13T03:04:49;7.47;;;5.30;;
38529;SDS011;24301;54.332;48.386;2022-09-13T03:07:15;6.30;;;5.35;;
38529;SDS011;24301;54.332;48.386;2022-09-13T03:09:43;7.67;;;4.67;;
38529;SDS011;24301;54.332;48.386;2022-09-13T03:14:59;6.50;;;4.72;;
38529;SDS011;24301;54.332;48.386;2022-09-13T03:28:35;6.57;;;5.00;;
38529;SDS011;24301;54.332;48.386;2022-09-13T03:31:15;8.43;;;4.93;;
38529;SDS011;24301;54.332;48.386;2022-09-13T03:33:55;7.20;;;4.63;;
38529;SDS011;24301;54.332;48.386;2022-09-13T03:36:32;6.13;;;4.50;;
38529;SDS011;24301;54.332;48.386;2022-09-13T03:39:08;5.80;;;4.80;;
38529;SDS011;24301;54.332;48.386;2022-09-13T03:41:46;6.33;;;4.67;;
38529;SDS011;24301;54.332;48.386;2022-09-13T03:44:17;7.20;;;4.77;;
38529;SDS011;24301;54.332;48.386;2022-09-13T03:46:47;5.30;;;4.63;;
38529;SDS011;24301;54.332;48.386;2022-09-13T03:49:17;7.87;;;5.07;;
38529;SDS011;24301;54.332;48.386;2022-09-13T03:51:48;6.60;;;4.40;;
38529;SDS011;24301;54.332;48.386;2022-09-13T03:54:22;8.17;;;4.63;;
38529;SDS011;24301;54.332;48.386;2022-09-13T03:57:04;7.23;;;4.43;;
38529;SDS011;24301;54.332;48.386;2022-09-13T03:59:33;5.47;;;4.17;;
38529;SDS011;24301;54.332;48.386;2022-09-13T04:02:01;6.57;;;4.57;;
38529;SDS011;24301;54.332;48.386;2022-09-13T04:04:27;5.20;;;4.03;;
38529;SDS011;24301;54.332;48.386;2022-09-13T04:06:53;5.27;;;3.93;;
38529;SDS011;24301;54.332;48.386;2022-09-13T04:09:21;5.95;;;4.32;;
38529;SDS011;24301;54.332;48.386;2022-09-13T04:11:47;4.68;;;3.80;;
38529;SDS011;24301;54.332;48.386;2022-09-13T04:14:13;5.47;;;4.20;;
38529;SDS011;24301;54.332;48.386;2022-09-13T04:16:40;6.60;;;4.13;;
38529;SDS011;24301;54.332;48.386;2022-09-13T04:19:06;6.47;;;4.28;;
38529;SDS011;24301;54.332;48.386;2022-09-13T04:21:32;5.93;;;4.05;;
38529;SDS011;24301;54.332;48.386;2022-09-13T04:23:58;4.88;;;3.30;;
38529;SDS011;24301;54.332;48.386;2022-09-13T04:26:24;5.28;;;3.83;;
38529;SDS011;24301;54.332;48.386;2022-09-13T04:28:51;4.93;;;3.88;;
38529;SDS011;24301;54.332;48.386;2022-09-13T04:31:17;7.05;;;3.55;;
38529;SDS011;24301;54.332;48.386;2022-09-13T04:33:43;5.05;;;4.07;;
38529;SDS011;24301;54.332;48.386;2022-09-13T04:36:09;5.20;;;4.28;;
38529;SDS011;24301;54.332;48.386;2022-09-13T04:38:35;4.88;;;4.18;;
38529;SDS011;24301;54.332;48.386;2022-09-13T04:41:02;4.47;;;3.53;;
38529;SDS011;24301;54.332;48.386;2022-09-13T04:43:27;5.05;;;3.70;;
38529;SDS011;24301;54.332;48.386;2022-09-13T04:45:54;4.75;;;3.70;;
38529;SDS011;24301;54.332;48.386;2022-09-13T04:48:25;4.47;;;3.78;;
38529;SDS011;24301;54.332;48.386;2022-09-13T04:50:51;3.72;;;3.38;;
38529;SDS011;24301;54.332;48.386;2022-09-13T04:53:17;4.60;;;3.70;;
38529;SDS011;24301;54.332;48.386;2022-09-13T04:55:43;5.60;;;3.92;;
38529;SDS011;24301;54.332;48.386;2022-09-13T04:58:09;4.20;;;3.58;;
38529;SDS011;24301;54.332;48.386;2022-09-13T05:00:36;5.88;;;3.40;;
38529;SDS011;24301;54.332;48.386;2022-09-13T05:03:02;4.07;;;2.88;;
38529;SDS011;24301;54.332;48.386;2022-09-13T05:05:28;4.20;;;3.55;;
38529;SDS011;24301;54.332;48.386;2022-09-13T05:07:55;4.15;;;3.47;;
38529;SDS011;24301;54.332;48.386;2022-09-13T05:10:21;4.60;;;3.15;;
38529;SDS011;24301;54.332;48.386;2022-09-13T05:12:47;4.22;;;3.30;;
38529;SDS011;24301;54.332;48.386;2022-09-13T05:15:13;4.38;;;3.30;;
38529;SDS011;24301;54.332;48.386;2022-09-13T05:17:39;3.95;;;3.25;;
38529;SDS011;24301;54.332;48.386;2022-09-13T05:20:05;6.50;;;3.60;;
38529;SDS011;24301;54.332;48.386;2022-09-13T05:22:31;4.72;;;3.20;;
38529;SDS011;24301;54.332;48.386;2022-09-13T05:25:06;4.00;;;3.50;;
38529;SDS011;24301;54.332;48.386;2022-09-13T05:27:32;5.07;;;3.40;;
38529;SDS011;24301;54.332;48.386;2022-09-13T05:29:58;4.43;;;3.47;;
38529;SDS011;24301;54.332;48.386;2022-09-13T05:32:24;4.25;;;3.47;;
38529;SDS011;24301;54.332;48.386;2022-09-13T05:34:50;4.20;;;3.33;;
38529;SDS011;24301;54.332;48.386;2022-09-13T05:37:16;4.03;;;3.28;;
38529;SDS011;24301;54.332;48.386;2022-09-13T05:39:44;3.83;;;2.67;;
38529;SDS011;24301;54.332;48.386;2022-09-13T05:42:09;4.53;;;3.10;;
38529;SDS011;24301;54.332;48.386;2022-09-13T05:44:35;3.70;;;3.08;;
38529;SDS011;24301;54.332;48.386;2022-09-13T05:47:01;3.40;;;2.78;;
38529;SDS011;24301;54.332;48.386;2022-09-13T05:49:27;5.07;;;2.80;;
38529;SDS011;24301;54.332;48.386;2022-09-13T05:52:02;3.65;;;2.60;;
38529;SDS011;24301;54.332;48.386;2022-09-13T05:54:27;3.80;;;2.60;;
38529;SDS011;24301;54.332;48.386;2022-09-13T05:56:53;3.70;;;2.47;;
38529;SDS011;24301;54.332;48.386;2022-09-13T05:59:21;3.17;;;2.88;;
38529;SDS011;24301;54.332;48.386;2022-09-13T06:01:47;2.50;;;2.30;;
38529;SDS011;24301;54.332;48.386;2022-09-13T06:04:13;2.83;;;2.60;;
38529;SDS011;24301;54.332;48.386;2022-09-13T06:06:39;3.00;;;2.33;;
38529;SDS011;24301;54.332;48.386;2022-09-13T06:09:05;3.10;;;2.40;;
38529;SDS011;24301;54.332;48.386;2022-09-13T06:11:32;3.63;;;2.65;;
38529;SDS011;24301;54.332;48.386;2022-09-13T06:13:58;2.75;;;2.30;;
38529;SDS011;24301;54.332;48.386;2022-09-13T06:16:24;2.63;;;2.20;;
38529;SDS011;24301;54.332;48.386;2022-09-13T06:18:50;3.10;;;2.00;;
38529;SDS011;24301;54.332;48.386;2022-09-13T06:21:17;1.83;;;1.70;;
38529;SDS011;24301;54.332;48.386;2022-09-13T06:23:45;2.28;;;2.00;;
38529;SDS011;24301;54.332;48.386;2022-09-13T06:26:13;2.88;;;2.50;;
38529;SDS011;24301;54.332;48.386;2022-09-13T06:28:41;2.25;;;1.73;;
38529;SDS011;24301;54.332;48.386;2022-09-13T06:31:10;4.03;;;1.92;;
38529;SDS011;24301;54.332;48.386;2022-09-13T06:33:38;3.17;;;2.38;;
38529;SDS011;24301;54.332;48.386;2022-09-13T06:36:10;3.20;;;2.50;;
38529;SDS011;24301;54.332;48.386;2022-09-13T06:38:42;2.20;;;1.92;;
38529;SDS011;24301;54.332;48.386;2022-09-13T06:41:09;4.13;;;2.28;;
38529;SDS011;24301;54.332;48.386;2022-09-13T06:43:37;2.55;;;2.00;;
38529;SDS011;24301;54.332;48.386;2022-09-13T06:46:07;3.92;;;2.13;;
38529;SDS011;24301;54.332;48.386;2022-09-13T06:48:39;4.20;;;2.00;;
38529;SDS011;24301;54.332;48.386;2022-09-13T06:51:09;3.42;;;2.10;;
38529;SDS011;24301;54.332;48.386;2022-09-13T06:53:37;2.90;;;1.80;;
38529;SDS011;24301;54.332;48.386;2022-09-13T06:56:25;2.58;;;1.90;;
38529;SDS011;24301;54.332;48.386;2022-09-13T07:01:25;2.63;;;1.58;;
38529;SDS011;24301;54.332;48.386;2022-09-13T07:03:54;2.92;;;1.52;;
38529;SDS011;24301;54.332;48.386;2022-09-13T07:06:31;3.50;;;1.55;;
38529;SDS011;24301;54.332;48.386;2022-09-13T07:08:59;1.50;;;1.40;;
38529;SDS011;24301;54.332;48.386;2022-09-13T07:11:36;1.60;;;1.50;;
38529;SDS011;24301;54.332;48.386;2022-09-13T07:14:04;1.60;;;1.50;;
38529;SDS011;24301;54.332;48.386;2022-09-13T07:16:34;4.13;;;2.00;;
38529;SDS011;24301;54.332;48.386;2022-09-13T07:19:05;3.45;;;1.98;;
38529;SDS011;24301;54.332;48.386;2022-09-13T07:21:36;2.80;;;1.50;;
38529;SDS011;24301;54.332;48.386;2022-09-13T07:24:02;2.25;;;1.70;;
38529;SDS011;24301;54.332;48.386;2022-09-13T07:26:29;3.60;;;1.80;;
38529;SDS011;24301;54.332;48.386;2022-09-13T07:28:57;3.85;;;1.60;;
38529;SDS011;24301;54.332;48.386;2022-09-13T07:31:27;3.70;;;1.95;;
38529;SDS011;24301;54.332;48.386;2022-09-13T07:33:56;2.25;;;1.85;;
38529;SDS011;24301;54.332;48.386;2022-09-13T07:36:23;2.85;;;1.90;;
38529;SDS011;24301;54.332;48.386;2022-09-13T07:38:50;2.00;;;1.80;;
38529;SDS011;24301;54.332;48.386;2022-09-13T07:41:21;2.20;;;1.75;;
38529;SDS011;24301;54.332;48.386;2022-09-13T07:43:49;1.70;;;1.60;;
38529;SDS011;24301;54.332;48.386;2022-09-13T07:46:17;3.03;;;1.65;;
38529;SDS011;24301;54.332;48.386;2022-09-13T07:48:47;3.30;;;2.00;;
38529;SDS011;24301;54.332;48.386;2022-09-13T07:51:15;4.88;;;1.85;;
38529;SDS011;24301;54.332;48.386;2022-09-13T07:53:43;2.03;;;1.70;;
38529;SDS011;24301;54.332;48.386;2022-09-13T07:56:11;2.65;;;1.67;;
38529;SDS011;24301;54.332;48.386;2022-09-13T07:58:39;3.92;;;2.20;;
38529;SDS011;24301;54.332;48.386;2022-09-13T08:01:13;2.30;;;1.90;;
38529;SDS011;24301;54.332;48.386;2022-09-13T08:03:42;3.75;;;2.10;;
38529;SDS011;24301;54.332;48.386;2022-09-13T08:06:08;3.60;;;2.28;;
38529;SDS011;24301;54.332;48.386;2022-09-13T08:08:35;5.25;;;3.45;;
38529;SDS011;24301;54.332;48.386;2022-09-13T08:11:03;4.95;;;2.40;;
38529;SDS011;24301;54.332;48.386;2022-09-13T08:13:30;3.15;;;2.45;;
38529;SDS011;24301;54.332;48.386;2022-09-13T08:16:02;4.72;;;2.30;;
38529;SDS011;24301;54.332;48.386;2022-09-13T08:18:29;4.45;;;2.05;;
38529;SDS011;24301;54.332;48.386;2022-09-13T08:20:56;4.10;;;2.58;;
38529;SDS011;24301;54.332;48.386;2022-09-13T08:23:23;2.20;;;2.00;;
38529;SDS011;24301;54.332;48.386;2022-09-13T08:25:50;4.07;;;1.75;;
38529;SDS011;24301;54.332;48.386;2022-09-13T08:28:16;2.53;;;2.28;;
38529;SDS011;24301;54.332;48.386;2022-09-13T08:30:46;2.65;;;2.33;;
38529;SDS011;24301;54.332;48.386;2022-09-13T08:33:13;4.45;;;2.22;;
38529;SDS011;24301;54.332;48.386;2022-09-13T08:35:39;2.42;;;1.75;;
38529;SDS011;24301;54.332;48.386;2022-09-13T08:38:05;3.25;;;2.00;;
38529;SDS011;24301;54.332;48.386;2022-09-13T08:40:40;2.35;;;2.00;;
38529;SDS011;24301;54.332;48.386;2022-09-13T08:43:15;5.38;;;3.13;;
38529;SDS011;24301;54.332;48.386;2022-09-13T08:45:49;2.38;;;2.13;;
38529;SDS011;24301;54.332;48.386;2022-09-13T08:48:19;3.50;;;1.90;;
38529;SDS011;24301;54.332;48.386;2022-09-13T08:50:51;3.83;;;2.22;;
38529;SDS011;24301;54.332;48.386;2022-09-13T08:53:30;4.00;;;2.25;;
38529;SDS011;24301;54.332;48.386;2022-09-13T08:56:02;2.60;;;2.00;;
38529;SDS011;24301;54.332;48.386;2022-09-13T09:01:31;5.03;;;2.63;;
38529;SDS011;24301;54.332;48.386;2022-09-13T09:07:01;2.10;;;1.80;;
38529;SDS011;24301;54.332;48.386;2022-09-13T09:09:34;3.47;;;1.63;;
38529;SDS011;24301;54.332;48.386;2022-09-13T09:12:16;2.20;;;1.70;;
38529;SDS011;24301;54.332;48.386;2022-09-13T09:15:35;7.63;;;3.28;;
38529;SDS011;24301;54.332;48.386;2022-09-13T09:20:20;2.85;;;2.00;;
38529;SDS011;24301;54.332;48.386;2022-09-13T09:22:53;3.25;;;2.13;;
38529;SDS011;24301;54.332;48.386;2022-09-13T09:25:23;3.13;;;2.28;;
38529;SDS011;24301;54.332;48.386;2022-09-13T09:27:51;2.65;;;1.80;;
38529;SDS011;24301;54.332;48.386;2022-09-13T09:30:19;2.28;;;2.00;;
38529;SDS011;24301;54.332;48.386;2022-09-13T09:33:09;3.58;;;1.80;;
38529;SDS011;24301;54.332;48.386;2022-09-13T09:38:41;1.98;;;1.60;;
38529;SDS011;24301;54.332;48.386;2022-09-13T09:41:26;2.90;;;2.22;;
38529;SDS011;24301;54.332;48.386;2022-09-13T09:49:50;1.75;;;1.65;;
38529;SDS011;24301;54.332;48.386;2022-09-13T09:55:17;3.58;;;1.98;;
38529;SDS011;24301;54.332;48.386;2022-09-13T10:00:24;3.45;;;1.77;;
38529;SDS011;24301;54.332;48.386;2022-09-13T10:02:54;2.65;;;1.95;;
38529;SDS011;24301;54.332;48.386;2022-09-13T10:05:24;2.60;;;1.80;;
38529;SDS011;24301;54.332;48.386;2022-09-13T10:07:52;3.17;;;1.65;;
38529;SDS011;24301;54.332;48.386;2022-09-13T10:10:43;2.90;;;1.40;;
38529;SDS011;24301;54.332;48.386;2022-09-13T10:13:21;4.28;;;1.60;;
38529;SDS011;24301;54.332;48.386;2022-09-13T10:15:59;1.60;;;1.50;;
38529;SDS011;24301;54.332;48.386;2022-09-13T10:18:31;3.90;;;1.52;;
38529;SDS011;24301;54.332;48.386;2022-09-13T10:23:46;2.83;;;2.08;;
38529;SDS011;24301;54.332;48.386;2022-09-13T10:26:23;5.50;;;2.03;;
38529;SDS011;24301;54.332;48.386;2022-09-13T10:31:17;1.63;;;1.52;;
38529;SDS011;24301;54.332;48.386;2022-09-13T10:36:12;1.92;;;1.38;;
38529;SDS011;24301;54.332;48.386;2022-09-13T10:38:41;9.32;;;4.60;;
38529;SDS011;24301;54.332;48.386;2022-09-13T10:41:23;8.38;;;5.93;;
38529;SDS011;24301;54.332;48.386;2022-09-13T10:43:58;7.43;;;6.00;;
38529;SDS011;24301;54.332;48.386;2022-09-13T10:46:27;3.30;;;2.17;;
38529;SDS011;24301;54.332;48.386;2022-09-13T10:48:55;6.57;;;3.35;;
38529;SDS011;24301;54.332;48.386;2022-09-13T10:53:48;5.10;;;3.17;;
38529;SDS011;24301;54.332;48.386;2022-09-13T10:56:21;2.42;;;1.70;;
38529;SDS011;24301;54.332;48.386;2022-09-13T10:58:49;1.70;;;1.50;;
38529;SDS011;24301;54.332;48.386;2022-09-13T11:10:01;1.70;;;1.60;;
38529;SDS011;24301;54.332;48.386;2022-09-13T11:15:57;11.45;;;7.65;;
38529;SDS011;24301;54.332;48.386;2022-09-13T11:18:37;16.05;;;9.52;;
38529;SDS011;24301;54.332;48.386;2022-09-13T11:29:22;1.52;;;1.42;;
38529;SDS011;24301;54.332;48.386;2022-09-13T11:37:46;2.13;;;1.77;;
38529;SDS011;24301;54.332;48.386;2022-09-13T11:45:41;3.20;;;1.90;;
38529;SDS011;24301;54.332;48.386;2022-09-13T11:53:39;2.28;;;1.92;;
38529;SDS011;24301;54.332;48.386;2022-09-13T11:56:28;8.05;;;5.25;;
38529;SDS011;24301;54.332;48.386;2022-09-13T12:01:49;10.43;;;7.82;;
38529;SDS011;24301;54.332;48.386;2022-09-13T12:04:44;7.32;;;5.55;;
38529;SDS011;24301;54.332;48.386;2022-09-13T12:07:39;4.45;;;3.17;;
38529;SDS011;24301;54.332;48.386;2022-09-13T12:12:49;3.70;;;2.72;;
38529;SDS011;24301;54.332;48.386;2022-09-13T12:18:04;3.40;;;2.00;;
38529;SDS011;24301;54.332;48.386;2022-09-13T12:20:37;2.58;;;2.05;;
38529;SDS011;24301;54.332;48.386;2022-09-13T12:23:10;4.45;;;2.08;;
38529;SDS011;24301;54.332;48.386;2022-09-13T12:25:44;4.07;;;2.70;;
38529;SDS011;24301;54.332;48.386;2022-09-13T12:28:23;4.90;;;3.70;;
38529;SDS011;24301;54.332;48.386;2022-09-13T12:30:55;3.97;;;3.17;;
38529;SDS011;24301;54.332;48.386;2022-09-13T12:33:43;2.00;;;1.80;;
38529;SDS011;24301;54.332;48.386;2022-09-13T12:44:17;2.92;;;1.90;;
38529;SDS011;24301;54.332;48.386;2022-09-13T12:52:35;3.65;;;1.77;;
38529;SDS011;24301;54.332;48.386;2022-09-13T13:03:02;2.17;;;1.73;;
38529;SDS011;24301;54.332;48.386;2022-09-13T13:05:42;3.35;;;1.88;;
38529;SDS011;24301;54.332;48.386;2022-09-13T13:08:22;4.93;;;1.90;;
38529;SDS011;24301;54.332;48.386;2022-09-13T13:10:59;4.22;;;1.80;;
38529;SDS011;24301;54.332;48.386;2022-09-13T13:13:35;2.03;;;1.80;;
38529;SDS011;24301;54.332;48.386;2022-09-13T13:16:20;3.40;;;2.15;;
38529;SDS011;24301;54.332;48.386;2022-09-13T13:18:52;1.33;;;1.23;;
38529;SDS011;24301;54.332;48.386;2022-09-13T13:21:26;2.35;;;1.77;;
38529;SDS011;24301;54.332;48.386;2022-09-13T13:26:52;1.63;;;1.52;;
38529;SDS011;24301;54.332;48.386;2022-09-13T13:29:21;2.00;;;1.80;;
38529;SDS011;24301;54.332;48.386;2022-09-13T13:34:49;2.25;;;1.48;;
38529;SDS011;24301;54.332;48.386;2022-09-13T13:39:44;2.20;;;1.60;;
38529;SDS011;24301;54.332;48.386;2022-09-13T13:50:14;2.22;;;2.03;;
38529;SDS011;24301;54.332;48.386;2022-09-13T13:58:21;3.15;;;1.85;;
38529;SDS011;24301;54.332;48.386;2022-09-13T14:01:13;2.92;;;1.80;;
38529;SDS011;24301;54.332;48.386;2022-09-13T14:06:45;2.78;;;1.98;;
38529;SDS011;24301;54.332;48.386;2022-09-13T14:12:19;2.05;;;1.80;;
38529;SDS011;24301;54.332;48.386;2022-09-13T14:20:37;6.47;;;3.50;;
38529;SDS011;24301;54.332;48.386;2022-09-13T14:23:18;5.00;;;2.97;;
38529;SDS011;24301;54.332;48.386;2022-09-13T14:25:44;6.57;;;2.80;;
38529;SDS011;24301;54.332;48.386;2022-09-13T14:28:21;4.00;;;2.70;;
38529;SDS011;24301;54.332;48.386;2022-09-13T14:30:47;4.65;;;2.60;;
38529;SDS011;24301;54.332;48.386;2022-09-13T14:33:21;5.07;;;2.78;;
38529;SDS011;24301;54.332;48.386;2022-09-13T14:35:58;4.57;;;3.08;;
38529;SDS011;24301;54.332;48.386;2022-09-13T14:38:31;4.13;;;2.70;;
38529;SDS011;24301;54.332;48.386;2022-09-13T14:41:02;6.00;;;2.85;;
38529;SDS011;24301;54.332;48.386;2022-09-13T14:43:47;4.70;;;2.80;;
38529;SDS011;24301;54.332;48.386;2022-09-13T14:48:48;5.78;;;2.75;;
38529;SDS011;24301;54.332;48.386;2022-09-13T14:53:56;5.07;;;2.20;;
38529;SDS011;24301;54.332;48.386;2022-09-13T14:57:07;4.20;;;2.63;;
38529;SDS011;24301;54.332;48.386;2022-09-13T15:02:26;5.68;;;3.10;;
38529;SDS011;24301;54.332;48.386;2022-09-13T15:04:56;4.78;;;3.60;;
38529;SDS011;24301;54.332;48.386;2022-09-13T15:07:31;6.35;;;3.13;;
38529;SDS011;24301;54.332;48.386;2022-09-13T15:18:03;7.10;;;3.42;;
38529;SDS011;24301;54.332;48.386;2022-09-13T15:26:23;6.85;;;3.50;;
38529;SDS011;24301;54.332;48.386;2022-09-13T15:28:51;3.83;;;2.70;;
38529;SDS011;24301;54.332;48.386;2022-09-13T15:31:28;9.05;;;3.45;;
38529;SDS011;24301;54.332;48.386;2022-09-13T15:36:47;6.15;;;3.72;;
38529;SDS011;24301;54.332;48.386;2022-09-13T15:39:43;7.53;;;3.97;;
38529;SDS011;24301;54.332;48.386;2022-09-13T15:42:26;6.33;;;4.10;;
38529;SDS011;24301;54.332;48.386;2022-09-13T15:44:51;8.80;;;4.80;;
38529;SDS011;24301;54.332;48.386;2022-09-13T15:47:18;5.78;;;3.97;;
38529;SDS011;24301;54.332;48.386;2022-09-13T15:49:48;4.80;;;3.30;;
38529;SDS011;24301;54.332;48.386;2022-09-13T15:52:16;6.38;;;3.70;;
38529;SDS011;24301;54.332;48.386;2022-09-13T15:54:45;5.78;;;3.80;;
38529;SDS011;24301;54.332;48.386;2022-09-13T15:57:25;6.65;;;3.90;;
38529;SDS011;24301;54.332;48.386;2022-09-13T16:00:20;5.47;;;3.85;;
38529;SDS011;24301;54.332;48.386;2022-09-13T16:02:51;5.53;;;4.10;;
38529;SDS011;24301;54.332;48.386;2022-09-13T16:05:17;6.28;;;4.70;;
38529;SDS011;24301;54.332;48.386;2022-09-13T16:07:44;7.07;;;4.80;;
38529;SDS011;24301;54.332;48.386;2022-09-13T16:10:15;7.30;;;4.88;;
38529;SDS011;24301;54.332;48.386;2022-09-13T16:12:46;7.65;;;3.75;;
38529;SDS011;24301;54.332;48.386;2022-09-13T16:15:12;6.25;;;4.05;;
38529;SDS011;24301;54.332;48.386;2022-09-13T16:17:39;4.97;;;3.50;;
38529;SDS011;24301;54.332;48.386;2022-09-13T16:20:06;7.40;;;3.80;;
38529;SDS011;24301;54.332;48.386;2022-09-13T16:22:35;6.53;;;3.83;;
38529;SDS011;24301;54.332;48.386;2022-09-13T16:25:01;5.85;;;3.40;;
38529;SDS011;24301;54.332;48.386;2022-09-13T16:27:28;4.90;;;3.10;;
38529;SDS011;24301;54.332;48.386;2022-09-13T16:29:54;4.00;;;3.13;;
38529;SDS011;24301;54.332;48.386;2022-09-13T16:32:20;6.47;;;3.95;;
38529;SDS011;24301;54.332;48.386;2022-09-13T16:34:46;5.30;;;3.53;;
38529;SDS011;24301;54.332;48.386;2022-09-13T16:37:16;4.13;;;3.08;;
38529;SDS011;24301;54.332;48.386;2022-09-13T16:39:43;7.07;;;4.15;;
38529;SDS011;24301;54.332;48.386;2022-09-13T16:42:10;5.03;;;3.67;;
38529;SDS011;24301;54.332;48.386;2022-09-13T16:44:37;5.13;;;3.78;;
38529;SDS011;24301;54.332;48.386;2022-09-13T16:47:03;6.32;;;4.15;;
38529;SDS011;24301;54.332;48.386;2022-09-13T16:49:29;4.85;;;3.35;;
38529;SDS011;24301;54.332;48.386;2022-09-13T16:51:55;6.15;;;3.33;;
38529;SDS011;24301;54.332;48.386;2022-09-13T16:54:24;8.55;;;3.80;;
38529;SDS011;24301;54.332;48.386;2022-09-13T16:56:51;5.15;;;3.65;;
38529;SDS011;24301;54.332;48.386;2022-09-13T16:59:18;7.97;;;4.15;;
38529;SDS011;24301;54.332;48.386;2022-09-13T17:01:43;6.72;;;3.70;;
38529;SDS011;24301;54.332;48.386;2022-09-13T17:04:09;6.35;;;4.10;;
38529;SDS011;24301;54.332;48.386;2022-09-13T17:06:35;5.22;;;3.47;;
38529;SDS011;24301;54.332;48.386;2022-09-13T17:09:04;5.22;;;3.90;;
38529;SDS011;24301;54.332;48.386;2022-09-13T17:11:34;5.63;;;3.70;;
38529;SDS011;24301;54.332;48.386;2022-09-13T17:14:02;7.43;;;3.80;;
38529;SDS011;24301;54.332;48.386;2022-09-13T17:19:01;9.18;;;3.67;;
38529;SDS011;24301;54.332;48.386;2022-09-13T17:21:29;7.68;;;4.05;;
38529;SDS011;24301;54.332;48.386;2022-09-13T17:23:58;5.70;;;3.47;;
38529;SDS011;24301;54.332;48.386;2022-09-13T17:26:25;4.65;;;3.20;;
38529;SDS011;24301;54.332;48.386;2022-09-13T17:28:51;4.15;;;3.28;;
38529;SDS011;24301;54.332;48.386;2022-09-13T17:31:17;4.97;;;2.80;;
38529;SDS011;24301;54.332;48.386;2022-09-13T17:33:44;3.40;;;2.90;;
38529;SDS011;24301;54.332;48.386;2022-09-13T17:36:11;4.38;;;3.28;;
38529;SDS011;24301;54.332;48.386;2022-09-13T17:38:38;4.72;;;3.30;;
38529;SDS011;24301;54.332;48.386;2022-09-13T17:41:09;7.47;;;3.60;;
38529;SDS011;24301;54.332;48.386;2022-09-13T17:43:38;4.25;;;2.95;;
38529;SDS011;24301;54.332;48.386;2022-09-13T17:46:07;4.10;;;3.28;;
38529;SDS011;24301;54.332;48.386;2022-09-13T17:48:37;6.55;;;3.40;;
38529;SDS011;24301;54.332;48.386;2022-09-13T17:51:05;6.57;;;3.00;;
38529;SDS011;24301;54.332;48.386;2022-09-13T17:53:43;4.80;;;2.75;;
38529;SDS011;24301;54.332;48.386;2022-09-13T17:56:11;4.50;;;2.50;;
38529;SDS011;24301;54.332;48.386;2022-09-13T17:58:45;3.90;;;2.60;;
38529;SDS011;24301;54.332;48.386;2022-09-13T18:01:11;5.70;;;3.42;;
38529;SDS011;24301;54.332;48.386;2022-09-13T18:03:37;3.63;;;2.80;;
38529;SDS011;24301;54.332;48.386;2022-09-13T18:06:04;3.22;;;2.78;;
38529;SDS011;24301;54.332;48.386;2022-09-13T18:08:32;4.10;;;2.85;;
38529;SDS011;24301;54.332;48.386;2022-09-13T18:11:17;6.07;;;2.58;;
38529;SDS011;24301;54.332;48.386;2022-09-13T18:13:44;3.58;;;2.80;;
38529;SDS011;24301;54.332;48.386;2022-09-13T18:16:11;3.70;;;2.75;;
38529;SDS011;24301;54.332;48.386;2022-09-13T18:18:39;3.03;;;2.47;;
38529;SDS011;24301;54.332;48.386;2022-09-13T18:21:05;3.40;;;2.75;;
38529;SDS011;24301;54.332;48.386;2022-09-13T18:23:32;4.05;;;2.70;;
38529;SDS011;24301;54.332;48.386;2022-09-13T18:26:02;3.65;;;2.67;;
38529;SDS011;24301;54.332;48.386;2022-09-13T18:28:32;3.60;;;2.30;;
38529;SDS011;24301;54.332;48.386;2022-09-13T18:31:00;3.67;;;2.90;;
38529;SDS011;24301;54.332;48.386;2022-09-13T18:33:27;3.28;;;2.65;;
38529;SDS011;24301;54.332;48.386;2022-09-13T18:35:57;3.00;;;2.60;;
38529;SDS011;24301;54.332;48.386;2022-09-13T18:38:24;4.00;;;2.65;;
38529;SDS011;24301;54.332;48.386;2022-09-13T18:41:24;4.10;;;2.55;;
38529;SDS011;24301;54.332;48.386;2022-09-13T18:44:02;5.18;;;2.50;;
38529;SDS011;24301;54.332;48.386;2022-09-13T18:46:31;3.65;;;3.05;;
38529;SDS011;24301;54.332;48.386;2022-09-13T18:48:59;4.45;;;3.00;;
38529;SDS011;24301;54.332;48.386;2022-09-13T18:51:27;4.05;;;2.85;;
38529;SDS011;24301;54.332;48.386;2022-09-13T18:53:53;3.40;;;2.33;;